Time;durP1;ratioP1;P1;durP2;ratioP2;P2;SDS_P1;SDS_P2;PMS_P1;PMS_P2;Temp;Humidity;BMP_temperature;BMP_pressure;BME280_temperature;BME280_humidity;BME280_pressure;Samples;Min_cycle;Max_cycle;Signal;HPM_P1;HPM_P2
2022/03/13 00:00:30;;;;;;;33.03;15.23;;;;;;;-6.76;100.00;101732.11;1712642;83;21456;-60
2022/03/13 00:02:57;;;;;;;32.40;14.80;;;;;;;-6.85;100.00;101726.29;1712546;84;21051;-61
2022/03/13 00:05:23;;;;;;;32.80;14.47;;;;;;;-6.87;100.00;101734.52;1712389;83;21063;-61
2022/03/13 00:07:54;;;;;;;31.80;14.23;;;;;;;-6.90;100.00;101737.72;1712546;84;21476;-61
2022/03/13 00:10:23;;;;;;;37.40;15.17;;;;;;;-6.87;100.00;101725.36;1712357;83;21102;-60
2022/03/13 00:12:49;;;;;;;30.83;13.07;;;;;;;-6.92;100.00;101730.94;1712710;83;21098;-61
2022/03/13 00:15:26;;;;;;;31.43;14.17;;;;;;;-6.94;100.00;101726.25;1712409;84;21094;-61
2022/03/13 00:17:53;;;;;;;34.63;14.07;;;;;;;-6.96;100.00;101719.91;1711935;83;21082;-60
2022/03/13 00:20:22;;;;;;;24.87;12.73;;;;;;;-6.98;100.00;101723.98;1712376;83;21039;-61
2022/03/13 00:22:49;;;;;;;31.13;12.93;;;;;;;-7.00;100.00;101722.21;1699531;84;21567;-60
2022/03/13 00:25:16;;;;;;;29.47;13.23;;;;;;;-7.08;100.00;101725.20;1712288;84;21063;-60
2022/03/13 00:27:43;;;;;;;31.50;13.67;;;;;;;-7.08;100.00;101719.34;1712313;84;21035;-61
2022/03/13 00:30:12;;;;;;;31.33;13.17;;;;;;;-7.13;100.00;101720.38;1712520;84;20963;-60
2022/03/13 00:32:40;;;;;;;29.90;12.80;;;;;;;-7.14;100.00;101726.55;1712339;83;21035;-60
2022/03/13 00:35:08;;;;;;;31.43;13.73;;;;;;;-7.14;100.00;101724.05;1712498;83;21022;-61
2022/03/13 00:37:35;;;;;;;29.70;13.50;;;;;;;-7.11;100.00;101726.72;1712227;83;21074;-61
2022/03/13 00:40:03;;;;;;;31.40;14.33;;;;;;;-7.12;100.00;101724.98;1712609;83;21058;-60
2022/03/13 00:42:30;;;;;;;28.93;13.10;;;;;;;-7.22;100.00;101727.44;1712573;83;21035;-61
2022/03/13 00:44:57;;;;;;;29.53;12.47;;;;;;;-7.22;100.00;101732.44;1712419;84;21099;-61
2022/03/13 00:47:24;;;;;;;26.23;12.43;;;;;;;-7.21;100.00;101727.06;1712366;84;20996;-61
2022/03/13 00:49:51;;;;;;;26.83;12.27;;;;;;;-7.24;100.00;101727.75;1712367;83;21087;-61
2022/03/13 00:52:18;;;;;;;29.50;12.87;;;;;;;-7.23;100.00;101724.88;1712358;84;21031;-61
2022/03/13 00:54:45;;;;;;;33.20;13.83;;;;;;;-7.22;100.00;101731.59;1712337;84;21568;-61
2022/03/13 00:57:12;;;;;;;31.63;13.70;;;;;;;-7.24;100.00;101730.26;1712587;84;21047;-61
2022/03/13 00:59:38;;;;;;;32.33;14.27;;;;;;;-7.25;100.00;101730.66;1712233;84;21058;-60
2022/03/13 01:02:05;;;;;;;41.53;15.83;;;;;;;-7.25;100.00;101733.56;1712429;83;21551;-61
2022/03/13 01:04:32;;;;;;;39.63;15.23;;;;;;;-7.23;100.00;101729.89;1712250;83;21040;-60
2022/03/13 01:07:00;;;;;;;34.77;13.90;;;;;;;-7.23;100.00;101738.65;1712240;84;21083;-60
2022/03/13 01:09:28;;;;;;;31.83;14.17;;;;;;;-7.24;100.00;101740.27;1712347;83;21008;-60
2022/03/13 01:11:56;;;;;;;41.87;14.37;;;;;;;-7.24;100.00;101740.27;1712236;83;21020;-60
2022/03/13 01:14:23;;;;;;;33.87;13.70;;;;;;;-7.27;100.00;101740.13;1712341;83;21011;-60
2022/03/13 01:17:04;;;;;;;33.87;14.17;;;;;;;-7.30;100.00;101743.72;1712360;84;21067;-60
2022/03/13 01:19:31;;;;;;;33.07;13.50;;;;;;;-7.32;100.00;101742.80;1712608;84;21012;-60
2022/03/13 01:21:59;;;;;;;30.53;13.20;;;;;;;-7.38;100.00;101747.50;1712567;83;21063;-60
2022/03/13 01:24:45;;;;;;;34.60;13.67;;;;;;;-7.39;100.00;101749.14;1712223;83;21523;-61
2022/03/13 01:27:16;;;;;;;33.20;12.93;;;;;;;-7.36;100.00;101748.06;1712538;84;21035;-60
2022/03/13 01:29:45;;;;;;;32.50;12.70;;;;;;;-7.36;100.00;101754.31;1712473;83;21031;-60
2022/03/13 01:32:16;;;;;;;34.43;12.37;;;;;;;-7.40;100.00;101756.20;1712547;84;21023;-60
2022/03/13 01:34:47;;;;;;;28.20;12.90;;;;;;;-7.45;100.00;101760.10;1712470;83;21475;-61
2022/03/13 01:37:23;;;;;;;36.40;13.97;;;;;;;-7.48;100.00;101759.56;1712041;83;21507;-60
2022/03/13 01:39:50;;;;;;;33.70;13.60;;;;;;;-7.46;100.00;101763.00;1712129;83;21095;-60
2022/03/13 01:42:17;;;;;;;35.00;14.37;;;;;;;-7.47;100.00;101763.77;1712518;84;21032;-60
2022/03/13 01:44:45;;;;;;;34.57;13.70;;;;;;;-7.47;100.00;101757.92;1712103;83;21135;-61
2022/03/13 01:47:14;;;;;;;30.13;13.17;;;;;;;-7.49;100.00;101765.34;1712274;84;21136;-60
2022/03/13 01:49:42;;;;;;;34.37;13.87;;;;;;;-7.50;100.00;101759.88;1712428;84;21547;-60
2022/03/13 01:52:09;;;;;;;41.13;17.77;;;;;;;-7.52;100.00;101761.81;1712424;84;21043;-61
2022/03/13 01:54:39;;;;;;;54.13;20.00;;;;;;;-7.58;100.00;101764.02;1712533;83;21062;-60
2022/03/13 01:57:06;;;;;;;41.70;17.33;;;;;;;-7.70;100.00;101765.13;1712394;84;21476;-60
2022/03/13 01:59:32;;;;;;;41.20;16.83;;;;;;;-7.72;100.00;101764.20;1712203;83;21031;-60
2022/03/13 02:01:59;;;;;;;43.00;16.87;;;;;;;-7.71;100.00;101771.30;1712330;84;21003;-61
2022/03/13 02:04:30;;;;;;;43.13;16.47;;;;;;;-7.71;100.00;101768.40;1712428;84;21039;-61
2022/03/13 02:06:58;;;;;;;39.10;15.57;;;;;;;-7.73;100.00;101768.72;1712530;84;20987;-61
2022/03/13 02:09:27;;;;;;;35.63;15.53;;;;;;;-7.74;100.00;101772.41;1712277;83;21048;-61
2022/03/13 02:11:55;;;;;;;35.70;15.23;;;;;;;-7.73;100.00;101780.36;1712448;83;21047;-61
2022/03/13 02:14:24;;;;;;;39.60;16.23;;;;;;;-7.68;100.00;101777.72;1712183;84;21489;-61
2022/03/13 02:16:52;;;;;;;43.10;16.03;;;;;;;-7.74;100.00;101777.41;1712451;83;21499;-61
2022/03/13 02:19:20;;;;;;;34.50;15.27;;;;;;;-7.83;100.00;101774.43;1712388;83;21071;-61
2022/03/13 02:21:52;;;;;;;32.73;15.70;;;;;;;-7.82;100.00;101779.91;1699596;84;21000;-61
2022/03/13 02:24:24;;;;;;;38.17;16.20;;;;;;;-7.81;100.00;101777.47;1712509;83;21043;-61
2022/03/13 02:27:06;;;;;;;39.97;14.83;;;;;;;-7.78;100.00;101778.89;1712532;83;21014;-61
2022/03/13 02:29:34;;;;;;;33.00;13.80;;;;;;;-7.77;100.00;101779.73;1712204;84;21000;-60
2022/03/13 02:32:02;;;;;;;35.90;16.47;;;;;;;-7.76;100.00;101788.97;1712516;84;21031;-60
2022/03/13 02:34:30;;;;;;;37.13;14.87;;;;;;;-7.78;100.00;101795.53;1712120;83;21059;-60
2022/03/13 02:37:02;;;;;;;36.37;14.97;;;;;;;-7.83;100.00;101786.93;1712188;84;21083;-60
2022/03/13 02:39:35;;;;;;;31.77;13.53;;;;;;;-7.82;100.00;101792.02;1712252;83;21086;-61
2022/03/13 02:42:03;;;;;;;34.60;14.67;;;;;;;-7.80;100.00;101787.95;1712399;84;21024;-60
2022/03/13 02:44:31;;;;;;;42.07;16.07;;;;;;;-7.81;100.00;101791.61;1718751;83;21563;-61
2022/03/13 02:47:02;;;;;;;38.90;15.90;;;;;;;-7.80;100.00;101792.09;1720927;83;21043;-60
2022/03/13 02:49:31;;;;;;;36.77;15.03;;;;;;;-7.88;100.00;101797.55;1702920;83;21031;-61
2022/03/13 02:52:03;;;;;;;36.63;14.77;;;;;;;-7.89;100.00;101788.72;1721076;82;20984;-61
2022/03/13 02:54:30;;;;;;;35.77;15.57;;;;;;;-7.88;100.00;101797.95;1721185;83;21074;-61
2022/03/13 02:56:59;;;;;;;39.43;16.03;;;;;;;-7.89;100.00;101795.81;1721299;82;20991;-60
2022/03/13 02:59:26;;;;;;;44.20;17.07;;;;;;;-7.92;100.00;101804.42;1720860;83;21058;-61
2022/03/13 03:01:54;;;;;;;41.87;15.87;;;;;;;-7.91;100.00;101804.88;1721056;82;21452;-60
2022/03/13 03:04:24;;;;;;;30.77;13.73;;;;;;;-7.94;100.00;101804.73;1720838;83;21547;-60
2022/03/13 03:06:59;;;;;;;39.43;14.10;;;;;;;-7.95;100.00;101804.64;1721278;83;21455;-61
2022/03/13 03:09:29;;;;;;;35.87;14.33;;;;;;;-7.97;100.00;101806.20;1721202;83;21031;-60
2022/03/13 03:12:04;;;;;;;36.23;15.13;;;;;;;-7.97;100.00;101811.20;1721114;83;21015;-61
2022/03/13 03:14:33;;;;;;;35.60;14.83;;;;;;;-8.02;100.00;101814.72;1720969;83;21115;-60
2022/03/13 03:17:00;;;;;;;36.67;14.27;;;;;;;-8.02;100.00;101812.62;1721072;83;21074;-61
2022/03/13 03:19:27;;;;;;;35.77;14.90;;;;;;;-8.04;100.00;101815.42;1720936;83;21050;-61
2022/03/13 03:21:55;;;;;;;34.73;14.70;;;;;;;-8.07;100.00;101823.23;1721161;83;21039;-61
2022/03/13 03:24:25;;;;;;;36.90;15.00;;;;;;;-8.07;100.00;101827.34;1721156;83;21027;-61
2022/03/13 03:26:53;;;;;;;33.43;15.20;;;;;;;-8.10;100.00;101827.20;1720843;83;20996;-60
2022/03/13 03:29:23;;;;;;;37.87;15.20;;;;;;;-8.14;100.00;101833.66;1721164;83;21031;-60
2022/03/13 03:31:53;;;;;;;35.37;14.17;;;;;;;-8.14;100.00;101832.41;1721087;83;22386;-60
2022/03/13 03:34:25;;;;;;;32.17;14.23;;;;;;;-8.17;100.00;101836.38;1721082;83;21030;-60
2022/03/13 03:36:58;;;;;;;31.70;14.10;;;;;;;-8.21;100.00;101837.88;1721160;83;21074;-61
2022/03/13 03:39:30;;;;;;;31.67;13.10;;;;;;;-8.21;100.00;101836.63;1721188;83;21032;-60
2022/03/13 03:42:00;;;;;;;30.17;12.23;;;;;;;-8.20;100.00;101847.08;1721226;83;21070;-61
2022/03/13 03:44:26;;;;;;;36.33;14.00;;;;;;;-8.24;100.00;101845.59;1720929;83;21070;-60
2022/03/13 03:46:54;;;;;;;31.97;14.03;;;;;;;-8.22;100.00;101845.28;1720833;83;21042;-60
2022/03/13 03:49:21;;;;;;;39.10;15.33;;;;;;;-8.24;100.00;101843.09;1721186;83;21531;-61
2022/03/13 03:51:48;;;;;;;37.83;14.00;;;;;;;-8.31;100.00;101848.16;1720966;83;21090;-61
2022/03/13 03:54:15;;;;;;;37.23;14.93;;;;;;;-8.32;100.00;101850.16;1721134;83;20980;-60
2022/03/13 03:56:42;;;;;;;33.87;13.33;;;;;;;-8.36;100.00;101849.52;1721327;83;21479;-60
2022/03/13 03:59:10;;;;;;;32.77;13.47;;;;;;;-8.46;100.00;101854.03;1720817;83;21078;-60
2022/03/13 04:01:41;;;;;;;32.53;14.13;;;;;;;-8.49;100.00;101853.03;1721063;83;21027;-61
2022/03/13 04:04:09;;;;;;;33.07;12.87;;;;;;;-8.46;100.00;101854.03;1721168;83;21460;-61
2022/03/13 04:06:40;;;;;;;35.23;12.93;;;;;;;-8.47;100.00;101852.73;1720825;83;21039;-61
2022/03/13 04:09:10;;;;;;;39.47;14.90;;;;;;;-8.50;100.00;101852.55;1721140;83;21540;-61
2022/03/13 04:11:38;;;;;;;37.07;15.87;;;;;;;-8.43;100.00;101856.23;1721163;83;21487;-62
2022/03/13 04:14:08;;;;;;;44.37;16.20;;;;;;;-8.35;100.00;101864.97;1721233;83;20999;-61
2022/03/13 04:16:35;;;;;;;41.10;16.37;;;;;;;-8.33;100.00;101863.05;1721189;83;21043;-61
2022/03/13 04:19:04;;;;;;;43.63;17.27;;;;;;;-8.32;100.00;101858.51;1721006;83;21023;-61
2022/03/13 04:21:31;;;;;;;40.10;16.47;;;;;;;-8.35;100.00;101871.20;1721282;83;21034;-61
2022/03/13 04:23:57;;;;;;;39.43;15.83;;;;;;;-8.37;100.00;101874.01;1721171;83;21023;-61
2022/03/13 04:26:25;;;;;;;42.03;16.90;;;;;;;-8.35;100.00;101878.34;1721281;83;21074;-61
2022/03/13 04:28:52;;;;;;;40.30;15.40;;;;;;;-8.23;100.00;101883.15;1720933;83;21082;-61
2022/03/13 04:31:18;;;;;;;42.90;15.80;;;;;;;-8.10;100.00;101884.66;1721253;83;21427;-61
2022/03/13 04:33:49;;;;;;;40.17;16.17;;;;;;;-8.03;100.00;101885.44;1721241;83;21336;-61
2022/03/13 04:36:23;;;;;;;44.50;16.37;;;;;;;-7.96;100.00;101884.16;1720924;83;21043;-61
2022/03/13 04:38:49;;;;;;;42.13;17.03;;;;;;;-7.89;100.00;101893.69;1721108;83;21063;-61
2022/03/13 04:41:16;;;;;;;40.27;16.37;;;;;;;-7.75;100.00;101891.52;1721246;83;21031;-61
2022/03/13 04:43:44;;;;;;;37.43;14.83;;;;;;;-7.66;100.00;101888.67;1721249;83;21114;-61
2022/03/13 04:46:12;;;;;;;40.13;16.07;;;;;;;-7.56;100.00;101888.73;1720939;83;21114;-60
2022/03/13 04:48:39;;;;;;;38.33;15.87;;;;;;;-7.49;100.00;101898.28;1720526;83;21558;-61
2022/03/13 04:51:07;;;;;;;39.73;16.67;;;;;;;-7.44;100.00;101904.37;1721198;83;21514;-60
2022/03/13 04:53:35;;;;;;;41.00;17.23;;;;;;;-7.45;100.00;101900.16;1702677;83;21079;-60
2022/03/13 04:56:03;;;;;;;42.60;17.90;;;;;;;-7.37;100.00;101914.32;1721228;83;21063;-60
2022/03/13 04:58:29;;;;;;;45.07;19.77;;;;;;;-7.31;100.00;101905.48;1720937;83;21050;-60
2022/03/13 05:00:58;;;;;;;42.70;17.87;;;;;;;-7.24;100.00;101912.89;1720916;83;21210;-60
2022/03/13 05:03:32;;;;;;;49.43;20.17;;;;;;;-7.17;100.00;101912.84;1721128;83;21055;-60
2022/03/13 05:05:57;;;;;;;46.60;19.20;;;;;;;-7.12;100.00;101917.67;1721212;83;21067;-60
2022/03/13 05:08:24;;;;;;;42.30;18.10;;;;;;;-7.12;100.00;101914.77;1721335;83;20976;-60
2022/03/13 05:10:53;;;;;;;42.17;17.90;;;;;;;-7.02;100.00;101921.50;1720995;83;21027;-61
2022/03/13 05:13:21;;;;;;;39.33;17.27;;;;;;;-6.92;100.00;101924.53;1721258;83;21531;-61
2022/03/13 05:15:47;;;;;;;40.03;18.13;;;;;;;-6.82;100.00;101924.61;1720900;83;21516;-60
2022/03/13 05:18:14;;;;;;;37.03;17.30;;;;;;;-6.72;100.00;101928.42;1721228;83;20987;-60
2022/03/13 05:20:42;;;;;;;43.37;17.33;;;;;;;-6.64;100.00;101927.16;1721269;83;21530;-60
2022/03/13 05:23:09;;;;;;;39.97;16.70;;;;;;;-6.55;100.00;101929.23;1702765;83;21148;-60
2022/03/13 05:25:38;;;;;;;38.37;15.80;;;;;;;-6.44;100.00;101936.89;1721249;83;21091;-60
2022/03/13 05:28:08;;;;;;;35.67;15.00;;;;;;;-6.34;100.00;101934.45;1721308;83;21538;-60
2022/03/13 05:30:36;;;;;;;30.37;13.03;;;;;;;-6.25;100.00;101934.86;1721073;82;21483;-60
2022/03/13 05:33:04;;;;;;;25.30;11.30;;;;;;;-6.15;100.00;101933.66;1721141;83;21035;-60
2022/03/13 05:35:31;;;;;;;24.00;10.43;;;;;;;-6.04;100.00;101940.05;1720893;83;21087;-60
2022/03/13 05:38:00;;;;;;;19.57;8.70;;;;;;;-5.92;100.00;101938.08;1721133;83;21058;-60
2022/03/13 05:40:28;;;;;;;20.93;8.90;;;;;;;-5.78;100.00;101940.34;1720884;83;21102;-60
2022/03/13 05:42:58;;;;;;;15.43;7.53;;;;;;;-5.67;100.00;101946.31;1721087;83;21043;-60
2022/03/13 05:45:27;;;;;;;18.17;8.30;;;;;;;-5.54;100.00;101940.59;1714160;83;21150;-60
2022/03/13 05:48:11;;;;;;;19.00;8.13;;;;;;;-5.37;100.00;101946.34;1712547;84;21071;-61
2022/03/13 05:50:38;;;;;;;15.00;7.20;;;;;;;-5.22;100.00;101944.52;1712331;84;21036;-60
2022/03/13 05:53:05;;;;;;;15.17;7.70;;;;;;;-5.02;100.00;101950.81;1712511;84;20992;-60
2022/03/13 05:55:32;;;;;;;16.53;7.73;;;;;;;-4.89;100.00;101950.11;1712358;83;21539;-60
2022/03/13 05:58:00;;;;;;;18.03;7.47;;;;;;;-4.75;100.00;101948.19;1712432;84;21011;-60
2022/03/13 06:00:31;;;;;;;17.50;7.10;;;;;;;-4.64;100.00;101941.97;1712318;84;21083;-60
2022/03/13 06:03:00;;;;;;;19.27;8.07;;;;;;;-4.47;100.00;101944.30;1712641;84;21043;-60
2022/03/13 06:05:30;;;;;;;19.60;8.70;;;;;;;-4.31;100.00;101948.30;1712558;83;21011;-61
2022/03/13 06:07:59;;;;;;;18.40;7.67;;;;;;;-4.18;100.00;101949.63;1712458;83;21544;-61
2022/03/13 06:10:26;;;;;;;17.63;8.20;;;;;;;-4.04;100.00;101947.25;1712202;84;21067;-61
2022/03/13 06:12:53;;;;;;;19.00;8.00;;;;;;;-3.88;100.00;101952.08;1712462;84;21023;-60
2022/03/13 06:15:22;;;;;;;18.67;7.47;;;;;;;-3.73;100.00;101949.67;1712158;83;21492;-61
2022/03/13 06:17:49;;;;;;;14.63;7.03;;;;;;;-3.60;100.00;101949.34;1712588;84;21515;-61
2022/03/13 06:20:17;;;;;;;14.43;6.43;;;;;;;-3.45;100.00;101948.67;1712263;83;21051;-60
2022/03/13 06:22:46;;;;;;;11.43;5.47;;;;;;;-3.28;100.00;101959.75;1712498;83;21028;-61
2022/03/13 06:25:16;;;;;;;11.10;5.13;;;;;;;-3.09;100.00;101956.21;1712265;84;21051;-62
2022/03/13 06:27:45;;;;;;;11.07;5.63;;;;;;;-2.87;100.00;101956.56;1712468;84;21021;-61
2022/03/13 06:30:16;;;;;;;11.60;5.37;;;;;;;-2.69;100.00;101962.63;1712601;84;20987;-62
2022/03/13 06:32:49;;;;;;;11.87;5.10;;;;;;;-2.49;100.00;101967.08;1712484;84;21027;-60
2022/03/13 06:35:19;;;;;;;10.53;4.63;;;;;;;-2.34;100.00;101962.52;1712458;84;21043;-60
2022/03/13 06:37:48;;;;;;;8.60;4.00;;;;;;;-2.15;99.73;101962.72;1712404;84;20984;-60
2022/03/13 06:40:19;;;;;;;9.53;3.90;;;;;;;-1.94;94.91;101962.52;1712408;84;21560;-60
2022/03/13 06:42:51;;;;;;;8.80;3.87;;;;;;;-1.73;91.72;101963.56;1712506;83;21051;-60
2022/03/13 06:45:18;;;;;;;8.73;4.20;;;;;;;-1.58;89.81;101973.28;1712335;83;21043;-60
2022/03/13 06:47:47;;;;;;;7.93;4.40;;;;;;;-1.37;87.24;101977.23;1712364;83;21015;-60
2022/03/13 06:50:15;;;;;;;7.43;4.10;;;;;;;-1.19;84.80;101978.16;1712409;84;21067;-60
2022/03/13 06:52:48;;;;;;;10.77;4.90;;;;;;;-1.01;84.10;101976.98;1712598;83;21494;-60
2022/03/13 06:55:16;;;;;;;7.57;4.10;;;;;;;-0.82;84.05;101982.12;1712429;84;21055;-60
2022/03/13 06:57:45;;;;;;;7.37;3.77;;;;;;;-0.73;82.28;101980.64;1712538;83;21480;-60
2022/03/13 07:00:15;;;;;;;8.13;3.90;;;;;;;-0.61;82.06;101980.58;1712253;84;21043;-60
2022/03/13 07:02:43;;;;;;;8.60;4.28;;;;;;;-0.46;80.86;101977.98;1712348;83;21047;-60
2022/03/13 07:05:12;;;;;;;8.15;4.33;;;;;;;-0.29;81.42;101983.03;1712526;83;21062;-60
2022/03/13 07:07:39;;;;;;;7.50;3.75;;;;;;;-0.11;81.17;101990.63;1712335;83;21091;-61
2022/03/13 07:10:11;;;;;;;8.33;3.90;;;;;;;-0.12;79.86;101990.16;1712193;84;21076;-60
2022/03/13 07:12:36;;;;;;;6.50;3.62;;;;;;;-0.03;77.47;101996.73;1712302;83;21067;-60
2022/03/13 07:15:10;;;;;;;6.87;3.58;;;;;;;-0.01;74.75;101990.88;1712401;84;21519;-60
2022/03/13 07:17:34;;;;;;;9.43;3.55;;;;;;;0.17;74.00;101994.66;1712434;83;21563;-60
2022/03/13 07:20:02;;;;;;;6.50;3.25;;;;;;;0.37;74.13;101998.48;1712161;84;21023;-60
2022/03/13 07:22:30;;;;;;;6.75;3.50;;;;;;;0.31;72.90;102004.69;1712176;84;21519;-60
2022/03/13 07:24:56;;;;;;;6.28;3.30;;;;;;;0.54;72.58;102003.06;1712136;84;21043;-60
2022/03/13 07:27:23;;;;;;;9.55;3.52;;;;;;;0.52;69.91;102005.97;1712463;84;21003;-60
2022/03/13 07:29:51;;;;;;;5.17;3.12;;;;;;;0.71;69.12;102011.00;1712370;83;21019;-60
2022/03/13 07:32:18;;;;;;;5.17;3.20;;;;;;;0.97;67.58;102007.73;1712696;83;21498;-60
2022/03/13 07:34:45;;;;;;;6.83;3.12;;;;;;;0.94;67.75;102012.34;1699322;84;21008;-60
2022/03/13 07:37:12;;;;;;;7.78;3.08;;;;;;;1.00;67.15;102017.95;1712275;83;21043;-60
2022/03/13 07:39:41;;;;;;;5.33;2.83;;;;;;;0.98;66.18;102014.53;1712403;84;21062;-60
2022/03/13 07:42:12;;;;;;;6.47;3.12;;;;;;;1.20;66.71;102015.80;1712562;83;21036;-60
2022/03/13 07:44:39;;;;;;;6.00;3.50;;;;;;;1.33;65.70;102019.41;1714465;83;21082;-60
2022/03/13 07:47:06;;;;;;;6.92;3.80;;;;;;;1.39;65.00;102017.83;1721350;83;21027;-60
2022/03/13 07:49:32;;;;;;;7.20;3.70;;;;;;;1.40;66.59;102017.02;1720948;83;21472;-60
2022/03/13 07:51:59;;;;;;;5.87;3.40;;;;;;;1.54;65.84;102022.34;1721155;83;21046;-60
2022/03/13 07:54:26;;;;;;;6.87;3.77;;;;;;;1.53;65.08;102023.58;1720987;83;21016;-60
2022/03/13 07:56:53;;;;;;;6.55;3.95;;;;;;;1.66;65.19;102033.52;1721329;83;21471;-60
2022/03/13 07:59:19;;;;;;;6.20;3.02;;;;;;;1.88;65.31;102030.51;1721069;83;21004;-60
2022/03/13 08:01:48;;;;;;;6.05;3.20;;;;;;;1.69;62.11;102030.63;1721367;83;21496;-60
2022/03/13 08:04:14;;;;;;;8.07;3.23;;;;;;;1.76;63.31;102038.80;1721216;83;21039;-60
2022/03/13 08:06:43;;;;;;;4.92;2.95;;;;;;;1.86;62.97;102037.25;1721060;83;21555;-60
2022/03/13 08:09:10;;;;;;;6.17;2.80;;;;;;;1.85;61.82;102038.09;1721353;83;21058;-60
2022/03/13 08:11:38;;;;;;;5.75;2.45;;;;;;;1.81;58.36;102031.25;1721084;83;21087;-61
2022/03/13 08:14:12;;;;;;;5.90;2.85;;;;;;;1.45;58.01;102034.85;1721025;83;21003;-60
2022/03/13 08:16:39;;;;;;;4.62;2.40;;;;;;;1.71;60.08;102035.31;1721393;83;21070;-60
2022/03/13 08:19:06;;;;;;;4.75;2.65;;;;;;;1.62;58.20;102041.48;1721075;82;21078;-60
2022/03/13 08:21:33;;;;;;;5.30;3.05;;;;;;;1.59;56.83;102041.03;1721251;83;21039;-60
2022/03/13 08:24:00;;;;;;;4.72;2.58;;;;;;;1.38;58.91;102041.93;1720984;83;21047;-60
2022/03/13 08:26:30;;;;;;;5.53;2.80;;;;;;;1.43;59.14;102042.00;1721281;83;21109;-60
2022/03/13 08:28:57;;;;;;;5.55;2.87;;;;;;;1.34;57.96;102040.16;1721165;83;21106;-60
2022/03/13 08:31:25;;;;;;;5.60;2.92;;;;;;;1.26;59.00;102046.36;1721012;83;21048;-60
2022/03/13 08:33:51;;;;;;;5.65;3.15;;;;;;;1.36;58.29;102045.70;1721300;82;21011;-60
2022/03/13 08:36:18;;;;;;;7.08;3.40;;;;;;;1.13;58.38;102040.59;1720985;83;21175;-60
2022/03/13 08:38:45;;;;;;;6.72;3.00;;;;;;;1.32;57.55;102045.62;1721276;83;21019;-59
2022/03/13 08:41:11;;;;;;;6.78;3.08;;;;;;;1.34;58.57;102043.55;1721122;83;21054;-60
2022/03/13 08:43:39;;;;;;;6.00;3.10;;;;;;;1.55;58.78;102053.65;1721347;83;21106;-60
2022/03/13 08:46:06;;;;;;;5.42;3.30;;;;;;;1.50;57.68;102052.69;1714815;83;21063;-60
2022/03/13 08:48:34;;;;;;;8.25;3.30;;;;;;;1.39;58.07;102049.55;1712177;83;21079;-62
2022/03/13 08:51:02;;;;;;;6.90;3.60;;;;;;;1.26;58.72;102048.89;1712279;84;21036;-60
2022/03/13 08:53:31;;;;;;;6.25;3.20;;;;;;;1.22;57.45;102056.00;1712462;83;21027;-60
2022/03/13 08:55:59;;;;;;;8.23;3.10;;;;;;;1.27;57.90;102055.66;1712335;83;21543;-61
2022/03/13 08:58:25;;;;;;;7.72;3.45;;;;;;;1.13;58.67;102059.61;1712550;84;21047;-60
2022/03/13 09:00:52;;;;;;;11.68;4.20;;;;;;;1.25;59.27;102064.92;1699500;84;21067;-60
2022/03/13 09:03:19;;;;;;;6.53;3.22;;;;;;;1.45;59.10;102070.37;1712253;83;21571;-61
2022/03/13 09:05:48;;;;;;;7.62;3.17;;;;;;;1.44;58.15;102072.88;1712574;83;21036;-60
2022/03/13 09:08:15;;;;;;;6.85;3.70;;;;;;;1.38;58.53;102069.42;1712336;84;21043;-61
2022/03/13 09:10:42;;;;;;;8.33;4.10;;;;;;;1.41;59.84;102074.95;1712497;84;21071;-61
2022/03/13 09:13:11;;;;;;;5.45;3.17;;;;;;;1.45;59.26;102075.88;1712359;83;21050;-61
2022/03/13 09:15:39;;;;;;;6.85;3.40;;;;;;;1.47;60.87;102077.61;1712301;84;21583;-60
2022/03/13 09:18:07;;;;;;;7.30;3.10;;;;;;;1.41;58.95;102076.22;1712679;84;21489;-60
2022/03/13 09:20:34;;;;;;;6.47;3.05;;;;;;;1.44;58.44;102070.34;1712342;83;21052;-61
2022/03/13 09:23:02;;;;;;;12.37;5.17;;;;;;;1.55;59.47;102071.41;1712478;83;21031;-60
2022/03/13 09:25:29;;;;;;;32.15;12.00;;;;;;;1.65;57.93;102069.91;1712315;84;21099;-62
2022/03/13 09:27:55;;;;;;;14.90;5.95;;;;;;;1.80;58.56;102068.49;1712294;83;21038;-60
2022/03/13 09:30:22;;;;;;;5.83;3.15;;;;;;;1.91;58.65;102066.55;1712201;83;21088;-60
2022/03/13 09:32:49;;;;;;;18.45;7.12;;;;;;;1.91;58.08;102067.81;1712230;84;21067;-60
2022/03/13 09:35:17;;;;;;;17.07;6.47;;;;;;;2.04;58.48;102065.91;1711617;83;21043;-61
2022/03/13 09:37:45;;;;;;;31.85;12.53;;;;;;;2.35;58.52;102067.64;1711534;84;21059;-61
2022/03/13 09:40:15;;;;;;;10.28;4.40;;;;;;;2.54;58.92;102068.36;1711569;83;21051;-64
2022/03/13 09:42:42;;;;;;;6.55;3.12;;;;;;;2.66;58.83;102069.38;1711584;83;21047;-61
2022/03/13 09:45:14;;;;;;;5.55;3.17;;;;;;;2.68;56.49;102066.45;1713015;83;21078;-61
2022/03/13 09:47:41;;;;;;;6.00;3.52;;;;;;;2.24;57.38;102056.48;1720662;83;20983;-62
2022/03/13 09:50:12;;;;;;;8.10;3.37;;;;;;;2.24;57.38;102056.48;1720645;83;21594;-61
2022/03/13 09:52:41;;;;;;;6.10;2.90;;;;;;;2.46;55.60;102061.47;1720940;83;21037;-62
2022/03/13 09:55:12;;;;;;;5.17;3.10;;;;;;;2.69;55.13;102057.54;1700664;83;21058;-62
2022/03/13 09:57:41;;;;;;;48.95;19.15;;;;;;;2.69;55.13;102057.54;1720930;83;21523;-61
2022/03/13 10:00:12;;;;;;;13.22;5.92;;;;;;;2.86;57.74;102055.63;1720617;83;21055;-62
2022/03/13 10:02:40;;;;;;;6.15;3.62;;;;;;;3.31;57.02;102055.33;1721068;83;21053;-62
2022/03/13 10:05:16;;;;;;;6.12;3.33;;;;;;;3.60;55.15;102050.53;1716717;83;21106;-62
2022/03/13 10:08:03;;;;;;;13.00;5.33;;;;;;;3.75;55.06;102055.33;1706773;83;21110;-62
2022/03/13 10:10:42;;;;;;;7.75;3.60;;;;;;;4.04;54.88;102063.23;1707913;83;21452;-62
2022/03/13 10:13:10;;;;;;;6.45;3.00;;;;;;;4.04;52.56;102071.31;1708164;83;21574;-62
2022/03/13 10:15:46;;;;;;;6.62;3.00;;;;;;;3.92;52.00;102068.23;1706179;83;21503;-61
2022/03/13 10:18:19;;;;;;;5.50;2.98;;;;;;;3.90;53.46;102069.48;1705425;83;21081;-61
2022/03/13 10:20:50;;;;;;;4.90;2.67;;;;;;;3.87;51.76;102068.59;1707059;83;21007;-61
2022/03/13 10:23:19;;;;;;;5.78;3.10;;;;;;;4.00;51.34;102075.52;1706053;83;21033;-61
2022/03/13 10:25:51;;;;;;;5.33;3.15;;;;;;;3.76;50.73;102068.08;1706155;83;21003;-61
2022/03/13 10:28:34;;;;;;;4.37;2.72;;;;;;;3.53;51.28;102071.69;1706678;83;21511;-61
2022/03/13 10:31:06;;;;;;;6.62;3.47;;;;;;;3.64;52.10;102070.52;1707140;83;21007;-61
2022/03/13 10:33:45;;;;;;;46.00;19.27;;;;;;;3.60;53.83;102070.90;1705840;83;21014;-61
2022/03/13 10:36:37;;;;;;;5.65;2.80;;;;;;;3.70;52.59;102069.73;1705666;83;20991;-62
2022/03/13 10:39:13;;;;;;;4.97;2.70;;;;;;;3.60;51.76;102078.54;1707623;83;21554;-62
2022/03/13 10:41:44;;;;;;;12.45;2.90;;;;;;;3.47;53.80;102072.02;1685229;83;20999;-62
2022/03/13 10:44:16;;;;;;;4.33;2.75;;;;;;;3.53;52.75;102075.94;1707293;83;21489;-61
2022/03/13 10:46:44;;;;;;;5.40;2.87;;;;;;;3.56;51.73;102075.95;1705286;83;21011;-62
2022/03/13 10:49:11;;;;;;;4.58;2.90;;;;;;;3.66;50.88;102071.38;1707669;83;20999;-62
2022/03/13 10:51:46;;;;;;;5.70;2.72;;;;;;;3.89;51.29;102073.28;1708174;83;21026;-61
2022/03/13 10:54:37;;;;;;;5.67;2.90;;;;;;;3.71;50.32;102079.94;1707015;83;20982;-62
2022/03/13 10:57:11;;;;;;;6.45;3.27;;;;;;;3.63;50.91;102073.92;1708357;83;21026;-61
2022/03/13 10:59:41;;;;;;;5.62;3.10;;;;;;;3.60;52.27;102082.36;1709017;83;21535;-61
2022/03/13 11:02:17;;;;;;;6.05;3.33;;;;;;;3.52;50.74;102076.77;1708921;84;21516;-62
2022/03/13 11:04:55;;;;;;;5.85;3.42;;;;;;;3.79;52.08;102072.34;1704663;84;21015;-62
2022/03/13 11:07:26;;;;;;;6.00;3.37;;;;;;;3.69;51.15;102071.43;1696712;84;21004;-61
2022/03/13 11:09:57;;;;;;;6.15;3.47;;;;;;;3.55;52.70;102073.83;1695111;84;21003;-62
2022/03/13 11:12:26;;;;;;;7.33;3.65;;;;;;;3.51;51.38;102067.43;1698754;84;21016;-60
2022/03/13 11:15:00;;;;;;;7.53;3.30;;;;;;;3.39;53.23;102069.42;1708231;83;21020;-60
2022/03/13 11:17:34;;;;;;;5.15;3.50;;;;;;;3.51;54.35;102078.46;1695741;84;21004;-60
2022/03/13 11:20:03;;;;;;;;;;;;;;;3.52;53.82;102072.94;1700415;84;21027;-60
2022/03/13 11:22:32;;;;;;;10.75;4.60;;;;;;;3.55;53.77;102065.35;1695702;84;20408;-62